Time;durP1;ratioP1;P1;durP2;ratioP2;P2;SDS_P1;SDS_P2;PMS_P1;PMS_P2;Temp;Humidity;BMP_temperature;BMP_pressure;BME280_temperature;BME280_humidity;BME280_pressure;Samples;Min_cycle;Max_cycle;Signal;HPM_P1;HPM_P2
2022/07/24 00:01:46;;;;;;;;;;;;;;;19.87;55.66;95367.50;5117593;28;1036;-49
2022/07/24 00:04:12;;;;;;;;;;;;;;;19.84;56.99;95356.22;5116932;28;1032;-49
2022/07/24 00:06:38;;;;;;;;;;;;;;;19.90;57.39;95358.13;5117425;28;1042;-49
2022/07/24 00:09:05;;;;;;;;;;;;;;;19.47;58.80;95362.16;5116984;28;1079;-50
2022/07/24 00:11:31;;;;;;;;;;;;;;;19.18;59.44;95362.59;5117129;28;1011;-49
2022/07/24 00:13:57;;;;;;;;;;;;;;;18.99;59.33;95361.56;5117219;28;925;-49
2022/07/24 00:16:23;;;;;;;;;;;;;;;19.17;58.48;95359.06;5117022;28;1991;-49
2022/07/24 00:18:49;;;;;;;;;;;;;;;19.29;58.41;95357.38;5117077;28;1031;-49
2022/07/24 00:21:15;;;;;;;;;;;;;;;19.30;58.47;95361.75;5116890;28;1080;-49
2022/07/24 00:23:42;;;;;;;;;;;;;;;19.43;58.46;95365.50;5116932;28;1028;-49
2022/07/24 00:26:09;;;;;;;;;;;;;;;19.50;57.99;95353.59;5116799;28;982;-49
2022/07/24 00:28:35;;;;;;;;;;;;;;;19.48;57.61;95360.25;5117139;28;1032;-49
2022/07/24 00:31:01;;;;;;;;;;;;;;;19.40;57.89;95358.59;5098563;28;1098;-49
2022/07/24 00:33:27;;;;;;;;;;;;;;;19.42;57.57;95350.25;5116966;28;1059;-49
2022/07/24 00:35:53;;;;;;;;;;;;;;;19.47;57.52;95350.47;5116434;28;1913;-49
2022/07/24 00:38:19;;;;;;;;;;;;;;;19.18;58.28;95352.59;5116839;28;1019;-50
2022/07/24 00:40:45;;;;;;;;;;;;;;;19.06;58.29;95348.84;5081863;28;1520;-49
2022/07/24 00:43:12;;;;;;;;;;;;;;;19.12;58.44;95348.00;5091644;28;1895;-49
2022/07/24 00:45:39;;;;;;;;;;;;;;;19.12;57.60;95358.84;5077942;28;1944;-50
2022/07/24 00:48:05;;;;;;;;;;;;;;;19.24;57.54;95354.47;5078276;28;1508;-50
2022/07/24 00:50:31;;;;;;;;;;;;;;;19.45;57.82;95344.44;5095895;28;1967;-50
2022/07/24 00:52:58;;;;;;;;;;;;;;;19.04;58.22;95353.63;5096017;28;1088;-51
2022/07/24 00:55:24;;;;;;;;;;;;;;;18.81;58.71;95345.94;5095681;28;1016;-50
2022/07/24 00:57:50;;;;;;;;;;;;;;;18.84;58.72;95346.34;5095868;28;1992;-50
2022/07/24 01:00:18;;;;;;;;;;;;;;;19.03;58.12;95343.88;5095560;28;1103;-50
2022/07/24 01:02:44;;;;;;;;;;;;;;;19.05;58.32;95339.88;5095826;28;1021;-50
2022/07/24 01:05:10;;;;;;;;;;;;;;;18.91;58.77;95352.63;5095464;28;957;-50
2022/07/24 01:07:36;;;;;;;;;;;;;;;18.95;59.08;95347.59;5095819;28;954;-50
2022/07/24 01:10:03;;;;;;;;;;;;;;;19.00;58.86;95355.09;5095083;28;1020;-49
2022/07/24 01:12:30;;;;;;;;;;;;;;;19.08;58.88;95346.75;5095614;28;1072;-50
2022/07/24 01:14:56;;;;;;;;;;;;;;;19.16;58.43;95346.56;5095553;28;1039;-50
2022/07/24 01:17:22;;;;;;;;;;;;;;;19.02;58.92;95342.19;5095570;28;1910;-50
2022/07/24 01:19:48;;;;;;;;;;;;;;;18.76;60.02;95332.97;5095185;28;1195;-50
2022/07/24 01:22:14;;;;;;;;;;;;;;;18.52;61.20;95331.72;5095419;28;963;-50
2022/07/24 01:24:40;;;;;;;;;;;;;;;18.32;61.57;95332.50;5095238;28;1041;-50
2022/07/24 01:27:07;;;;;;;;;;;;;;;18.10;61.12;95331.00;5095228;28;1017;-50
2022/07/24 01:29:33;;;;;;;;;;;;;;;18.39;60.85;95324.41;5095509;28;997;-50
2022/07/24 01:31:59;;;;;;;;;;;;;;;18.66;59.47;95329.84;5095240;28;973;-50
2022/07/24 01:34:25;;;;;;;;;;;;;;;18.79;59.19;95329.84;5094956;28;1112;-50
2022/07/24 01:36:51;;;;;;;;;;;;;;;18.76;59.18;95330.25;5094986;28;1912;-50
2022/07/24 01:39:17;;;;;;;;;;;;;;;18.79;59.21;95337.97;5095478;28;1150;-50
2022/07/24 01:41:43;;;;;;;;;;;;;;;18.68;59.99;95330.47;5095114;28;965;-50
2022/07/24 01:44:09;;;;;;;;;;;;;;;18.56;61.30;95338.38;5110330;28;1158;-50
2022/07/24 01:46:35;;;;;;;;;;;;;;;18.12;62.19;95337.88;5115337;28;946;-50
2022/07/24 01:49:02;;;;;;;;;;;;;;;18.15;61.68;95336.63;5115352;28;973;-50
2022/07/24 01:51:28;;;;;;;;;;;;;;;18.34;60.84;95335.84;5115123;28;1076;-50
2022/07/24 01:53:53;;;;;;;;;;;;;;;18.44;61.05;95332.75;5097104;28;1053;-50
2022/07/24 01:56:19;;;;;;;;;;;;;;;18.46;60.79;95330.66;5115148;28;1910;-50
2022/07/24 01:58:46;;;;;;;;;;;;;;;18.45;61.08;95323.56;5115329;28;1027;-50
2022/07/24 02:01:12;;;;;;;;;;;;;;;18.43;61.32;95325.66;5115017;28;985;-50
2022/07/24 02:03:38;;;;;;;;;;;;;;;18.41;61.81;95321.50;5115038;28;1032;-50
2022/07/24 02:06:04;;;;;;;;;;;;;;;18.16;61.24;95324.75;5114519;28;1027;-50
2022/07/24 02:08:30;;;;;;;;;;;;;;;18.16;61.65;95323.94;5114928;28;1036;-50
2022/07/24 02:10:56;;;;;;;;;;;;;;;18.05;62.61;95326.19;5114748;28;1083;-50
2022/07/24 02:13:22;;;;;;;;;;;;;;;18.11;62.32;95330.78;5115165;28;972;-50
2022/07/24 02:15:48;;;;;;;;;;;;;;;17.93;62.94;95319.72;5114831;28;1017;-50
2022/07/24 02:18:14;;;;;;;;;;;;;;;17.95;62.50;95325.75;5114729;28;1990;-50
2022/07/24 02:20:40;;;;;;;;;;;;;;;17.86;62.35;95313.44;5114271;28;1103;-50
2022/07/24 02:23:06;;;;;;;;;;;;;;;17.80;62.88;95325.84;5114012;28;1950;-50
2022/07/24 02:25:32;;;;;;;;;;;;;;;17.93;62.39;95320.53;5114563;28;1033;-50
2022/07/24 02:27:58;;;;;;;;;;;;;;;17.75;62.80;95326.44;5114701;28;1000;-50
2022/07/24 02:30:24;;;;;;;;;;;;;;;17.53;63.62;95328.44;5114456;28;1092;-50
2022/07/24 02:32:50;;;;;;;;;;;;;;;17.70;62.59;95330.78;5114399;28;1116;-50
2022/07/24 02:35:16;;;;;;;;;;;;;;;17.77;62.22;95334.38;5114198;28;969;-50
2022/07/24 02:37:43;;;;;;;;;;;;;;;17.61;63.20;95340.13;5114148;28;1977;-49
2022/07/24 02:40:10;;;;;;;;;;;;;;;17.50;63.17;95341.53;5114512;28;1059;-49
2022/07/24 02:42:36;;;;;;;;;;;;;;;17.31;63.98;95337.66;5112218;28;1158;-51
2022/07/24 02:45:03;;;;;;;;;;;;;;;17.25;64.06;95341.16;5094018;28;1047;-50
2022/07/24 02:47:29;;;;;;;;;;;;;;;17.53;63.08;95341.97;5093683;28;1040;-50
2022/07/24 02:49:55;;;;;;;;;;;;;;;17.65;62.82;95344.09;5093846;28;1100;-50
2022/07/24 02:52:21;;;;;;;;;;;;;;;17.71;62.92;95338.69;5093548;28;1052;-50
2022/07/24 02:54:47;;;;;;;;;;;;;;;17.58;62.56;95338.63;5094017;28;1008;-50
2022/07/24 02:57:13;;;;;;;;;;;;;;;17.29;63.66;95334.31;5093404;28;1989;-50
2022/07/24 02:59:39;;;;;;;;;;;;;;;17.36;62.48;95338.75;5093857;28;1061;-50
2022/07/24 03:02:05;;;;;;;;;;;;;;;17.63;61.79;95344.28;5093555;28;973;-50
2022/07/24 03:04:32;;;;;;;;;;;;;;;17.65;62.19;95342.22;5093493;28;1062;-50
2022/07/24 03:06:58;;;;;;;;;;;;;;;17.72;62.06;95337.69;5093358;28;954;-49
2022/07/24 03:09:24;;;;;;;;;;;;;;;17.72;62.24;95337.69;5093404;28;1052;-50
2022/07/24 03:11:50;;;;;;;;;;;;;;;17.81;61.52;95342.91;5093502;28;1028;-50
2022/07/24 03:14:16;;;;;;;;;;;;;;;17.82;62.24;95342.72;5093392;28;1042;-50
2022/07/24 03:16:42;;;;;;;;;;;;;;;17.56;62.27;95338.84;5093403;28;1979;-50
2022/07/24 03:19:08;;;;;;;;;;;;;;;17.43;62.96;95341.47;5093469;28;978;-50
2022/07/24 03:21:34;;;;;;;;;;;;;;;17.43;63.49;95337.94;5093184;28;1140;-50
2022/07/24 03:24:00;;;;;;;;;;;;;;;17.50;63.13;95336.13;5093223;28;1889;-50
2022/07/24 03:26:25;;;;;;;;;;;;;;;17.39;63.57;95326.69;5093614;28;1045;-49
2022/07/24 03:28:51;;;;;;;;;;;;;;;17.19;64.61;95334.69;5093426;28;1033;-50
2022/07/24 03:31:17;;;;;;;;;;;;;;;17.32;63.89;95332.06;5093427;28;1016;-50
2022/07/24 03:33:43;;;;;;;;;;;;;;;17.33;63.67;95330.19;5096003;28;962;-50
2022/07/24 03:36:09;;;;;;;;;;;;;;;17.50;63.50;95344.22;5097095;28;2016;-50
2022/07/24 03:38:35;;;;;;;;;;;;;;;17.58;63.64;95341.34;5097275;28;1029;-50
2022/07/24 03:41:01;;;;;;;;;;;;;;;17.43;63.71;95338.75;5097579;28;1019;-50
2022/07/24 03:43:27;;;;;;;;;;;;;;;17.31;63.65;95346.59;5106671;28;1165;-49
2022/07/24 03:45:53;;;;;;;;;;;;;;;17.36;64.24;95338.75;5117780;28;1084;-50
2022/07/24 03:48:19;;;;;;;;;;;;;;;17.44;65.26;95347.72;5117631;28;1058;-50
2022/07/24 03:50:45;;;;;;;;;;;;;;;17.52;64.34;95353.78;5117694;28;957;-50
2022/07/24 03:53:11;;;;;;;;;;;;;;;17.58;64.04;95354.88;5117898;28;1060;-50
2022/07/24 03:55:37;;;;;;;;;;;;;;;17.55;64.46;95348.00;5117608;28;984;-50
2022/07/24 03:58:03;;;;;;;;;;;;;;;17.75;63.93;95353.50;5117400;28;1913;-50
2022/07/24 04:00:29;;;;;;;;;;;;;;;17.74;64.35;95353.72;5117625;28;996;-49
2022/07/24 04:02:55;;;;;;;;;;;;;;;18.00;63.49;95355.72;5117272;28;1210;-49
2022/07/24 04:05:21;;;;;;;;;;;;;;;18.02;64.20;95352.81;5099124;28;972;-50
2022/07/24 04:07:47;;;;;;;;;;;;;;;18.13;63.77;95350.34;5117081;28;1119;-49
2022/07/24 04:10:13;;;;;;;;;;;;;;;18.32;64.00;95356.84;5117476;28;961;-49
2022/07/24 04:12:39;;;;;;;;;;;;;;;18.31;64.16;95352.50;5117038;28;1032;-49
2022/07/24 04:15:05;;;;;;;;;;;;;;;18.32;64.49;95354.13;5117239;28;1016;-50
2022/07/24 04:17:31;;;;;;;;;;;;;;;18.56;64.25;95353.78;5117036;28;1991;-49
2022/07/24 04:19:57;;;;;;;;;;;;;;;18.57;64.17;95350.03;5116887;28;1088;-50
2022/07/24 04:22:23;;;;;;;;;;;;;;;18.40;64.86;95355.84;5116878;28;962;-49
2022/07/24 04:24:49;;;;;;;;;;;;;;;18.51;63.85;95359.81;5117037;28;1029;-49
2022/07/24 04:27:15;;;;;;;;;;;;;;;18.75;63.72;95357.56;5117044;28;950;-51
2022/07/24 04:29:41;;;;;;;;;;;;;;;18.99;63.61;95356.13;5116761;28;1012;-50
2022/07/24 04:32:07;;;;;;;;;;;;;;;19.25;61.37;95361.53;5116913;28;962;-50
2022/07/24 04:34:33;;;;;;;;;;;;;;;19.25;62.74;95358.00;5116511;28;980;-49
2022/07/24 04:36:59;;;;;;;;;;;;;;;19.26;61.88;95359.69;5116678;28;1914;-50
2022/07/24 04:39:25;;;;;;;;;;;;;;;19.41;61.95;95360.28;5116783;28;958;-49
2022/07/24 04:41:51;;;;;;;;;;;;;;;19.67;61.38;95359.41;5116909;28;1044;-49
2022/07/24 04:44:17;;;;;;;;;;;;;;;19.94;60.35;95364.78;5099386;28;1213;-49
2022/07/24 04:46:43;;;;;;;;;;;;;;;20.01;61.75;95368.28;5096265;28;957;-49
2022/07/24 04:49:09;;;;;;;;;;;;;;;19.97;62.63;95366.22;5095882;28;1111;-49
2022/07/24 04:51:35;;;;;;;;;;;;;;;20.09;61.60;95370.75;5096011;28;1060;-49
2022/07/24 04:54:01;;;;;;;;;;;;;;;20.27;59.67;95355.66;5096058;28;980;-49
2022/07/24 04:56:31;;;;;;;;;;;;;;;20.56;59.38;95359.66;5096124;28;2004;-50
2022/07/24 04:58:57;;;;;;;;;;;;;;;20.77;52.73;95355.81;5095913;28;1032;-48
2022/07/24 05:01:23;;;;;;;;;;;;;;;20.83;52.08;95352.19;5095765;28;1012;-49
2022/07/24 05:03:49;;;;;;;;;;;;;;;20.89;52.30;95357.78;5095724;28;1037;-49
2022/07/24 05:06:15;;;;;;;;;;;;;;;20.97;54.14;95357.53;5095540;28;1052;-48
2022/07/24 05:08:41;;;;;;;;;;;;;;;21.06;52.94;95356.22;5095590;28;1033;-49
2022/07/24 05:11:07;;;;;;;;;;;;;;;21.28;52.95;95355.81;5095857;28;1646;-49
2022/07/24 05:13:33;;;;;;;;;;;;;;;21.50;51.03;95365.25;5095461;28;1168;-49
2022/07/24 05:15:59;;;;;;;;;;;;;;;21.78;51.26;95358.50;5095758;28;1032;-51
2022/07/24 05:18:25;;;;;;;;;;;;;;;22.61;50.52;95365.22;5095476;28;1906;-50
2022/07/24 05:20:51;;;;;;;;;;;;;;;23.22;50.02;95365.16;5095246;28;1081;-50
2022/07/24 05:23:17;;;;;;;;;;;;;;;23.26;50.16;95361.75;5095646;28;998;-50
2022/07/24 05:25:43;;;;;;;;;;;;;;;22.91;50.97;95364.38;5095275;28;1040;-50
2022/07/24 05:28:09;;;;;;;;;;;;;;;22.78;51.21;95366.25;5095317;28;1037;-50
2022/07/24 05:30:35;;;;;;;;;;;;;;;22.59;52.12;95368.19;5095132;28;1021;-54
2022/07/24 05:33:01;;;;;;;;;;;;;;;22.46;52.86;95367.53;5095257;28;1084;-50
2022/07/24 05:35:27;;;;;;;;;;;;;;;22.38;53.70;95368.69;5094774;28;1058;-50
2022/07/24 05:37:53;;;;;;;;;;;;;;;22.42;52.27;95364.44;5095102;28;1898;-49
2022/07/24 05:40:19;;;;;;;;;;;;;;;22.76;51.02;95368.34;5095127;28;978;-50
2022/07/24 05:42:45;;;;;;;;;;;;;;;23.27;49.65;95355.22;5098493;28;1138;-50
2022/07/24 05:45:11;;;;;;;;;;;;;;;23.92;48.58;95364.34;5115315;28;1026;-50
2022/07/24 05:47:41;;;;;;;;;;;;;;;24.26;48.33;95359.88;5115449;28;958;-50
2022/07/24 05:50:11;;;;;;;;;;;;;;;24.22;48.55;95355.97;5115551;28;1020;-50
2022/07/24 05:52:37;;;;;;;;;;;;;;;24.52;47.60;95364.00;5115521;28;1027;-49
2022/07/24 05:55:04;;;;;;;;;;;;;;;24.72;48.10;95358.09;5115177;28;1027;-50
2022/07/24 05:57:30;;;;;;;;;;;;;;;24.51;47.79;95350.53;5096041;28;1979;-50
2022/07/24 05:59:56;;;;;;;;;;;;;;;24.62;46.37;95354.34;5115114;28;995;-50
2022/07/24 06:02:22;;;;;;;;;;;;;;;24.24;46.75;95348.38;5115032;28;988;-49
2022/07/24 06:04:48;;;;;;;;;;;;;;;23.87;46.95;95354.16;5114610;28;1096;-49
2022/07/24 06:07:14;;;;;;;;;;;;;;;23.78;48.88;95353.69;5115160;28;1059;-50
2022/07/24 06:09:40;;;;;;;;;;;;;;;23.76;48.06;95349.53;5114802;28;1040;-50
2022/07/24 06:12:06;;;;;;;;;;;;;;;23.92;48.05;95345.25;5115003;28;1039;-50
2022/07/24 06:14:32;;;;;;;;;;;;;;;23.83;49.02;95344.81;5114716;28;992;-50
2022/07/24 06:16:59;;;;;;;;;;;;;;;23.79;47.75;95343.63;5114786;28;1909;-50
2022/07/24 06:19:25;;;;;;;;;;;;;;;23.81;49.20;95341.47;5114355;28;1988;-49
2022/07/24 06:21:51;;;;;;;;;;;;;;;23.93;49.46;95339.56;5114984;28;961;-50
2022/07/24 06:24:18;;;;;;;;;;;;;;;24.02;48.44;95342.75;5114673;28;1032;-49
2022/07/24 06:26:43;;;;;;;;;;;;;;;24.28;47.82;95335.06;5114690;28;965;-50
2022/07/24 06:29:09;;;;;;;;;;;;;;;24.51;47.79;95334.13;5114586;28;1084;-49
2022/07/24 06:31:35;;;;;;;;;;;;;;;24.69;47.33;95330.41;5114289;28;1100;-50
2022/07/24 06:34:01;;;;;;;;;;;;;;;24.84;47.17;95325.22;5114146;28;1015;-49
2022/07/24 06:36:27;;;;;;;;;;;;;;;25.02;46.50;95328.78;5114412;28;1989;-49
2022/07/24 06:38:53;;;;;;;;;;;;;;;25.00;46.57;95331.78;5114428;28;1068;-49
2022/07/24 06:41:20;;;;;;;;;;;;;;;25.16;47.04;95332.06;5114221;28;1065;-49
2022/07/24 06:43:45;;;;;;;;;;;;;;;25.31;45.47;95332.34;5102602;28;1157;-49
2022/07/24 06:46:11;;;;;;;;;;;;;;;25.36;46.35;95329.66;5075843;28;954;-49
2022/07/24 06:48:38;;;;;;;;;;;;;;;25.47;46.35;95331.47;5093795;28;1075;-49
2022/07/24 06:51:04;;;;;;;;;;;;;;;25.60;46.96;95338.50;5093558;28;1096;-50
2022/07/24 06:53:30;;;;;;;;;;;;;;;25.71;46.20;95332.09;5094010;28;949;-49
2022/07/24 06:55:56;;;;;;;;;;;;;;;25.79;46.92;95333.59;5094065;28;969;-50
2022/07/24 06:58:22;;;;;;;;;;;;;;;25.89;46.14;95330.97;5093753;28;1906;-49
2022/07/24 07:00:49;;;;;;;;;;;;;;;26.09;45.33;95326.91;5093601;28;1019;-53
2022/07/24 07:03:15;;;;;;;;;;;;;;;26.17;45.74;95331.09;5093533;28;981;-49
2022/07/24 07:05:41;;;;;;;;;;;;;;;26.20;45.05;95325.09;5093558;28;1056;-50
2022/07/24 07:08:07;;;;;;;;;;;;;;;26.10;43.82;95328.53;5093241;28;1962;-50
2022/07/24 07:10:33;;;;;;;;;;;;;;;26.05;44.26;95320.28;5093401;28;1084;-50
2022/07/24 07:12:59;;;;;;;;;;;;;;;26.30;45.09;95333.47;5093716;28;1004;-50
2022/07/24 07:15:26;;;;;;;;;;;;;;;26.64;43.21;95322.34;5093338;28;1029;-49
2022/07/24 07:17:52;;;;;;;;;;;;;;;26.68;42.76;95318.81;5093434;28;1989;-49
2022/07/24 07:23:59;;;;;;;;;;;;;;;27.23;43.49;95319.59;4930910;28;2061;-50
2022/07/24 07:26:25;;;;;;;;;;;;;;;27.31;42.47;95312.84;5093206;28;718;-51
2022/07/24 07:28:51;;;;;;;;;;;;;;;27.62;43.76;95321.28;5093427;28;1040;-50
2022/07/24 07:31:17;;;;;;;;;;;;;;;27.81;43.13;95306.03;5093358;28;1044;-50
2022/07/24 07:33:43;;;;;;;;;;;;;;;27.90;42.60;95305.56;5093546;28;962;-49
2022/07/24 07:36:09;;;;;;;;;;;;;;;27.84;41.40;95308.22;5092911;28;1910;-50
2022/07/24 07:38:37;;;;;;;;;;;;;;;27.80;42.59;95301.63;5093362;28;988;-49
2022/07/24 07:41:03;;;;;;;;;;;;;;;27.91;43.48;95309.97;5093000;28;1041;-50
2022/07/24 07:43:29;;;;;;;;;;;;;;;28.06;42.73;95303.69;5102775;28;1869;-50
2022/07/24 07:45:55;;;;;;;;;;;;;;;28.07;41.80;95308.13;5113412;28;1036;-50
2022/07/24 07:48:21;;;;;;;;;;;;;;;28.16;42.13;95310.06;5113640;28;976;-50
2022/07/24 07:50:47;;;;;;;;;;;;;;;28.29;42.04;95307.94;5113423;28;1029;-50
2022/07/24 07:53:13;;;;;;;;;;;;;;;28.40;40.89;95315.09;5113370;28;1146;-50
2022/07/24 07:55:40;;;;;;;;;;;;;;;28.49;40.18;95301.66;5113258;28;1047;-49
2022/07/24 07:58:06;;;;;;;;;;;;;;;28.73;40.23;95307.53;5113332;28;2000;-50
2022/07/24 08:00:32;;;;;;;;;;;;;;;28.83;39.12;95298.47;5113439;28;1036;-50
2022/07/24 08:02:59;;;;;;;;;;;;;;;28.93;40.35;95295.72;5113561;28;1021;-50
2022/07/24 08:05:25;;;;;;;;;;;;;;;29.04;38.78;95293.81;5113238;28;1015;-50
2022/07/24 08:07:51;;;;;;;;;;;;;;;29.23;38.87;95283.13;5113283;28;1016;-50
2022/07/24 08:10:17;;;;;;;;;;;;;;;29.42;39.24;95281.44;5113207;28;969;-50
2022/07/24 08:12:42;;;;;;;;;;;;;;;29.57;38.87;95289.66;5113163;28;1126;-50
2022/07/24 08:15:09;;;;;;;;;;;;;;;29.63;39.40;95284.16;5113419;28;949;-51
2022/07/24 08:17:35;;;;;;;;;;;;;;;29.69;38.31;95285.78;5113022;28;1906;-50
2022/07/24 08:20:01;;;;;;;;;;;;;;;29.69;38.21;95291.31;5114897;28;958;-50
2022/07/24 08:22:27;;;;;;;;;;;;;;;29.81;37.40;95282.78;5116808;28;1083;-50
2022/07/24 08:24:53;;;;;;;;;;;;;;;29.96;37.92;95280.00;5117133;28;961;-50
2022/07/24 08:27:19;;;;;;;;;;;;;;;30.12;37.25;95283.50;5116967;28;1059;-50
2022/07/24 08:29:45;;;;;;;;;;;;;;;30.32;36.92;95296.41;5117157;28;1044;-50
2022/07/24 08:32:11;;;;;;;;;;;;;;;30.29;36.47;95283.16;5116781;28;1003;-50
2022/07/24 08:34:37;;;;;;;;;;;;;;;30.05;36.61;95283.81;5116841;28;988;-50
2022/07/24 08:37:03;;;;;;;;;;;;;;;29.81;36.64;95288.31;5116540;28;1991;-50
2022/07/24 08:39:29;;;;;;;;;;;;;;;29.84;37.06;95282.22;5116693;28;1019;-50
2022/07/24 08:41:55;;;;;;;;;;;;;;;29.68;35.96;95279.47;5117818;28;958;-50
2022/07/24 08:44:21;;;;;;;;;;;;;;;29.54;36.61;95279.22;5099877;28;1180;-50
2022/07/24 08:46:49;;;;;;;;;;;;;;;29.61;37.38;95276.16;5096039;28;1107;-50
2022/07/24 08:49:15;;;;;;;;;;;;;;;29.76;37.00;95278.91;5095996;28;1107;-50
2022/07/24 08:51:43;;;;;;;;;;;;;;;30.06;36.67;95273.59;5095932;28;1025;-50
2022/07/24 08:54:10;;;;;;;;;;;;;;;30.30;35.66;95271.84;5095962;28;984;-50
2022/07/24 08:56:39;;;;;;;;;;;;;;;30.16;36.03;95268.88;5095977;28;1910;-51
2022/07/24 08:59:15;;;;;;;;;;;;;;;30.32;35.99;95266.91;5095886;28;1036;-51
2022/07/24 09:01:41;;;;;;;;;;;;;;;30.68;35.79;95261.19;5095875;28;1000;-51
2022/07/24 09:04:27;;;;;;;;;;;;;;;30.99;34.32;95263.75;5095595;28;988;-51
2022/07/24 09:06:57;;;;;;;;;;;;;;;31.19;34.23;95257.25;5095596;28;1895;-50
2022/07/24 09:09:23;;;;;;;;;;;;;;;31.12;36.10;95257.56;5095702;28;974;-50
2022/07/24 09:11:49;;;;;;;;;;;;;;;30.98;35.83;95258.50;5095724;28;973;-50
2022/07/24 09:14:30;;;;;;;;;;;;;;;30.70;35.72;95256.19;5095954;28;1069;-49
2022/07/24 09:17:03;;;;;;;;;;;;;;;30.53;36.87;95264.03;5095353;28;1906;-50
2022/07/24 09:19:29;;;;;;;;;;;;;;;30.40;35.80;95268.25;5095905;28;1052;-49
2022/07/24 09:21:55;;;;;;;;;;;;;;;30.30;36.59;95260.00;5095443;28;1267;-49
2022/07/24 09:24:22;;;;;;;;;;;;;;;30.20;37.10;95265.53;5095685;28;1177;-50
2022/07/24 09:26:53;;;;;;;;;;;;;;;30.08;38.07;95268.63;5095497;28;966;-50
2022/07/24 09:29:20;;;;;;;;;;;;;;;29.98;37.22;95262.06;5095378;28;965;-50
2022/07/24 09:31:54;;;;;;;;;;;;;;;29.98;36.87;95259.28;5094995;28;1091;-52
2022/07/24 09:34:21;;;;;;;;;;;;;;;29.98;37.37;95258.47;5095237;28;932;-50
2022/07/24 09:36:56;;;;;;;;;;;;;;;29.96;36.74;95252.41;5095341;28;1913;-50
2022/07/24 09:39:26;;;;;;;;;;;;;;;30.02;36.51;95250.47;5095150;28;1035;-50
2022/07/24 09:41:52;;;;;;;;;;;;;;;30.07;36.08;95253.19;5095256;28;1053;-50
2022/07/24 09:44:18;;;;;;;;;;;;;;;30.27;37.16;95249.53;5111108;28;1145;-50
2022/07/24 09:46:53;;;;;;;;;;;;;;;30.30;35.83;95254.47;5115664;28;956;-50
2022/07/24 09:49:23;;;;;;;;;;;;;;;30.32;36.64;95250.34;5115324;28;961;-50
2022/07/24 09:52:04;;;;;;;;;;;;;;;30.41;36.44;95253.34;5115447;28;1052;-50
2022/07/24 09:54:31;;;;;;;;;;;;;;;30.57;36.25;95245.81;5115149;28;1040;-50
2022/07/24 09:57:14;;;;;;;;;;;;;;;30.80;36.00;95238.75;5115113;28;2118;-50
2022/07/24 09:59:41;;;;;;;;;;;;;;;30.90;34.93;95237.88;5114924;28;1092;-54
2022/07/24 10:02:08;;;;;;;;;;;;;;;31.00;35.14;95243.31;5115102;28;970;-54
2022/07/24 10:04:34;;;;;;;;;;;;;;;31.10;35.48;95234.13;5096739;28;1036;-50
2022/07/24 10:07:02;;;;;;;;;;;;;;;31.23;35.45;95238.97;5115013;28;1050;-50
2022/07/24 10:09:29;;;;;;;;;;;;;;;31.26;35.15;95234.81;5114786;28;1084;-50
2022/07/24 10:11:56;;;;;;;;;;;;;;;31.58;34.91;95236.19;5116421;28;977;-49
2022/07/24 10:14:24;;;;;;;;;;;;;;;31.87;34.04;95233.38;5114811;28;1051;-48
2022/07/24 10:16:56;;;;;;;;;;;;;;;31.99;33.58;95230.22;5114942;28;1918;-54
2022/07/24 10:19:27;;;;;;;;;;;;;;;32.30;32.68;95225.13;5114486;28;1056;-50
2022/07/24 10:21:55;;;;;;;;;;;;;;;32.54;31.49;95233.38;5115107;28;1380;-51
2022/07/24 10:24:21;;;;;;;;;;;;;;;32.77;32.47;95230.84;5114705;28;1594;-51
2022/07/24 10:26:51;;;;;;;;;;;;;;;32.86;31.71;95231.81;5114889;28;1061;-51
2022/07/24 10:29:22;;;;;;;;;;;;;;;32.68;30.91;95225.16;5114508;28;1037;-50
2022/07/24 10:31:48;;;;;;;;;;;;;;;32.45;33.48;95215.78;5114669;28;1043;-51
2022/07/24 10:34:23;;;;;;;;;;;;;;;32.20;33.01;95219.75;5114103;28;1000;-51
2022/07/24 10:37:04;;;;;;;;;;;;;;;32.07;32.85;95208.28;5114710;28;1910;-51
2022/07/24 10:39:36;;;;;;;;;;;;;;;32.02;33.81;95211.09;5114252;28;1044;-51
2022/07/24 10:42:04;;;;;;;;;;;;;;;32.29;33.03;95202.19;5113872;28;1095;-50
2022/07/24 10:44:30;;;;;;;;;;;;;;;32.55;32.31;95204.56;5095939;28;1161;-50
2022/07/24 10:47:04;;;;;;;;;;;;;;;32.77;32.57;95206.75;5093866;28;1009;-51
2022/07/24 10:49:33;;;;;;;;;;;;;;;32.92;31.97;95199.34;5093932;28;1021;-51
2022/07/24 10:51:59;;;;;;;;;;;;;;;32.93;33.04;95209.28;5094008;28;1025;-51
2022/07/24 10:54:26;;;;;;;;;;;;;;;33.06;32.14;95197.41;5093661;28;1088;-51
2022/07/24 10:56:52;;;;;;;;;;;;;;;33.15;32.41;95198.41;5093793;28;1913;-50
2022/07/24 10:59:32;;;;;;;;;;;;;;;33.20;31.81;95198.34;5093555;28;954;-50
2022/07/24 11:02:17;;;;;;;;;;;;;;;33.25;32.55;95201.00;5093955;28;1056;-50
2022/07/24 11:04:43;;;;;;;;;;;;;;;33.33;31.87;95190.34;5093211;28;1246;-49
2022/07/24 11:07:13;;;;;;;;;;;;;;;33.39;31.56;95183.56;5093510;28;1080;-49
2022/07/24 11:09:56;;;;;;;;;;;;;;;33.43;31.75;95177.13;5093456;28;1029;-49
2022/07/24 11:12:26;;;;;;;;;;;;;;;33.50;33.08;95175.91;5093658;28;1061;-50
2022/07/24 11:15:53;;;;;;;;;;;;;;;33.55;32.25;95164.72;5093790;28;962;-49
2022/07/24 11:17:43;;;;;;;;;;;;;;;33.56;32.21;95166.34;5093416;28;1917;-49
2022/07/24 11:20:09;;;;;;;;;;;;;;;33.54;31.69;95163.91;5093310;28;1088;-50
2022/07/24 11:22:40;;;;;;;;;;;;;;;33.49;30.72;95161.22;5093226;28;1543;-51
2022/07/24 11:25:07;;;;;;;;;;;;;;;33.64;32.47;95158.19;5093163;28;1071;-50
2022/07/24 11:27:44;;;;;;;;;;;;;;;33.67;31.20;95153.16;5093381;28;1063;-50
2022/07/24 11:30:11;;;;;;;;;;;;;;;33.66;32.00;95149.56;5093193;28;1166;-50
2022/07/24 11:32:38;;;;;;;;;;;;;;;33.74;32.10;95145.25;5093385;28;1056;-50
2022/07/24 11:35:06;;;;;;;;;;;;;;;33.80;30.35;95144.00;5093636;28;1041;-50
2022/07/24 11:37:33;;;;;;;;;;;;;;;33.82;31.67;95142.56;5093182;28;1906;-50
2022/07/24 11:39:59;;;;;;;;;;;;;;;33.82;31.16;95138.97;5093325;28;960;-50
2022/07/24 11:42:25;;;;;;;;;;;;;;;33.88;31.31;95132.19;5093791;28;1175;-50
2022/07/24 11:44:51;;;;;;;;;;;;;;;33.92;32.67;95132.38;5113371;28;1037;-50
2022/07/24 11:47:22;;;;;;;;;;;;;;;33.98;32.59;95123.66;5113526;28;1028;-50
2022/07/24 11:49:49;;;;;;;;;;;;;;;33.95;31.34;95121.50;5113329;28;977;-50
2022/07/24 11:52:15;;;;;;;;;;;;;;;33.84;32.05;95125.63;5113422;28;1028;-50
2022/07/24 11:54:42;;;;;;;;;;;;;;;33.78;32.17;95121.31;5097994;28;1048;-50
2022/07/24 11:57:18;;;;;;;;;;;;;;;33.80;31.84;95122.63;5117450;28;1997;-50
2022/07/24 11:59:46;;;;;;;;;;;;;;;33.79;32.41;95118.25;5117306;28;1021;-50
2022/07/24 12:02:12;;;;;;;;;;;;;;;33.70;32.00;95116.50;5117364;28;969;-50
2022/07/24 12:04:39;;;;;;;;;;;;;;;33.67;31.34;95112.38;5117075;28;1088;-50
2022/07/24 12:07:09;;;;;;;;;;;;;;;33.54;31.19;95122.34;5117326;28;1044;-50
2022/07/24 12:09:54;;;;;;;;;;;;;;;33.34;31.83;95117.19;5117341;28;1027;-50
2022/07/24 12:12:23;;;;;;;;;;;;;;;33.18;32.85;95116.63;5117264;28;1045;-50
2022/07/24 12:14:53;;;;;;;;;;;;;;;33.13;32.21;95109.25;5098908;28;1871;-49
2022/07/24 12:17:20;;;;;;;;;;;;;;;33.13;32.76;95108.44;5117311;28;1906;-49
2022/07/24 12:19:53;;;;;;;;;;;;;;;33.08;33.32;95101.81;5117173;28;957;-50
2022/07/24 12:22:20;;;;;;;;;;;;;;;33.00;32.66;95093.41;5116800;28;1095;-51
2022/07/24 12:24:47;;;;;;;;;;;;;;;32.95;32.52;95090.72;5116883;28;1016;-51
2022/07/24 12:27:31;;;;;;;;;;;;;;;32.87;33.18;95090.31;5116725;28;962;-54
2022/07/24 12:29:57;;;;;;;;;;;;;;;32.75;33.47;95106.59;5117099;28;1051;-50
2022/07/24 12:32:22;;;;;;;;;;;;;;;32.67;33.66;95099.00;5116951;28;1003;-50
2022/07/24 12:34:49;;;;;;;;;;;;;;;32.62;32.60;95105.41;5116842;28;1000;-50
2022/07/24 12:37:19;;;;;;;;;;;;;;;32.57;32.52;95097.19;5116575;28;1977;-49
2022/07/24 12:39:49;;;;;;;;;;;;;;;32.49;33.36;95092.31;5116710;28;1016;-50
2022/07/24 12:42:16;;;;;;;;;;;;;;;32.42;33.63;95092.72;5116496;28;1029;-50
2022/07/24 12:44:44;;;;;;;;;;;;;;;32.34;33.80;95098.09;5097070;28;1162;-50
2022/07/24 12:47:13;;;;;;;;;;;;;;;32.24;34.59;95107.38;5096035;28;977;-50
2022/07/24 12:49:40;;;;;;;;;;;;;;;32.19;35.20;95096.38;5096206;28;974;-50
2022/07/24 12:52:18;;;;;;;;;;;;;;;32.08;35.85;95095.72;5095844;28;1998;-50
2022/07/24 12:54:45;;;;;;;;;;;;;;;31.97;35.72;95100.56;5096073;28;1011;-50
2022/07/24 12:57:12;;;;;;;;;;;;;;;31.85;35.38;95102.91;5095681;28;1988;-50
2022/07/24 12:59:42;;;;;;;;;;;;;;;31.71;35.84;95111.13;5096161;28;992;-50
2022/07/24 13:02:09;;;;;;;;;;;;;;;31.61;36.73;95102.97;5095906;28;996;-50
2022/07/24 13:04:42;;;;;;;;;;;;;;;31.49;36.85;95106.97;5095772;28;960;-51